sensor_id;sensor_type;location;lat;lon;timestamp;P1;durP1;ratioP1;P2;durP2;ratioP2
69523;SDS011;56723;42.694;23.286;2023-03-14T00:01:08;52.90;;;31.97;;
69523;SDS011;56723;42.694;23.286;2023-03-14T00:03:39;53.40;;;29.07;;
69523;SDS011;56723;42.694;23.286;2023-03-14T00:06:07;51.60;;;30.73;;
69523;SDS011;56723;42.694;23.286;2023-03-14T00:08:35;49.37;;;30.17;;
69523;SDS011;56723;42.694;23.286;2023-03-14T00:11:10;49.57;;;28.57;;
69523;SDS011;56723;42.694;23.286;2023-03-14T00:13:39;49.80;;;28.73;;
69523;SDS011;56723;42.694;23.286;2023-03-14T00:16:08;51.07;;;25.63;;
69523;SDS011;56723;42.694;23.286;2023-03-14T00:18:37;48.27;;;25.63;;
69523;SDS011;56723;42.694;23.286;2023-03-14T00:21:05;40.40;;;23.00;;
69523;SDS011;56723;42.694;23.286;2023-03-14T00:23:34;46.13;;;26.98;;
69523;SDS011;56723;42.694;23.286;2023-03-14T00:26:03;41.17;;;23.80;;
69523;SDS011;56723;42.694;23.286;2023-03-14T00:28:32;29.33;;;17.63;;
69523;SDS011;56723;42.694;23.286;2023-03-14T00:31:01;14.13;;;8.17;;
69523;SDS011;56723;42.694;23.286;2023-03-14T00:33:32;11.77;;;6.03;;
69523;SDS011;56723;42.694;23.286;2023-03-14T00:38:36;9.97;;;4.90;;
69523;SDS011;56723;42.694;23.286;2023-03-14T00:41:05;6.67;;;4.13;;
69523;SDS011;56723;42.694;23.286;2023-03-14T00:43:33;7.65;;;4.20;;
69523;SDS011;56723;42.694;23.286;2023-03-14T00:46:00;8.00;;;4.77;;
69523;SDS011;56723;42.694;23.286;2023-03-14T00:48:27;18.53;;;11.57;;
69523;SDS011;56723;42.694;23.286;2023-03-14T00:50:54;16.43;;;9.60;;
69523;SDS011;56723;42.694;23.286;2023-03-14T00:53:21;18.63;;;11.37;;
69523;SDS011;56723;42.694;23.286;2023-03-14T00:55:49;25.37;;;13.53;;
69523;SDS011;56723;42.694;23.286;2023-03-14T00:58:17;17.30;;;10.17;;
69523;SDS011;56723;42.694;23.286;2023-03-14T01:00:44;26.83;;;15.80;;
69523;SDS011;56723;42.694;23.286;2023-03-14T01:03:13;27.50;;;15.33;;
69523;SDS011;56723;42.694;23.286;2023-03-14T01:05:41;26.67;;;16.15;;
69523;SDS011;56723;42.694;23.286;2023-03-14T01:08:08;28.27;;;15.77;;
69523;SDS011;56723;42.694;23.286;2023-03-14T01:10:39;30.00;;;15.43;;
69523;SDS011;56723;42.694;23.286;2023-03-14T01:13:07;31.13;;;17.33;;
69523;SDS011;56723;42.694;23.286;2023-03-14T01:15:38;32.37;;;18.37;;
69523;SDS011;56723;42.694;23.286;2023-03-14T01:18:05;27.10;;;16.50;;
69523;SDS011;56723;42.694;23.286;2023-03-14T01:20:32;27.83;;;16.37;;
69523;SDS011;56723;42.694;23.286;2023-03-14T01:22:58;31.80;;;16.20;;
69523;SDS011;56723;42.694;23.286;2023-03-14T01:25:25;33.63;;;18.67;;
69523;SDS011;56723;42.694;23.286;2023-03-14T01:27:53;30.87;;;17.17;;
69523;SDS011;56723;42.694;23.286;2023-03-14T01:30:20;31.83;;;17.77;;
69523;SDS011;56723;42.694;23.286;2023-03-14T01:32:48;28.73;;;17.97;;
69523;SDS011;56723;42.694;23.286;2023-03-14T01:35:15;28.87;;;18.43;;
69523;SDS011;56723;42.694;23.286;2023-03-14T01:37:42;28.80;;;15.90;;
69523;SDS011;56723;42.694;23.286;2023-03-14T01:40:14;25.60;;;17.03;;
69523;SDS011;56723;42.694;23.286;2023-03-14T01:42:56;25.60;;;14.02;;
69523;SDS011;56723;42.694;23.286;2023-03-14T01:48:40;27.20;;;15.03;;
69523;SDS011;56723;42.694;23.286;2023-03-14T01:51:17;26.53;;;14.67;;
69523;SDS011;56723;42.694;23.286;2023-03-14T01:53:48;22.73;;;13.87;;
69523;SDS011;56723;42.694;23.286;2023-03-14T01:56:16;20.50;;;13.32;;
69523;SDS011;56723;42.694;23.286;2023-03-14T01:58:46;22.83;;;14.00;;
69523;SDS011;56723;42.694;23.286;2023-03-14T02:01:16;24.23;;;14.47;;
69523;SDS011;56723;42.694;23.286;2023-03-14T02:03:48;26.93;;;14.13;;
69523;SDS011;56723;42.694;23.286;2023-03-14T02:06:21;23.23;;;13.37;;
69523;SDS011;56723;42.694;23.286;2023-03-14T02:08:55;23.23;;;12.33;;
69523;SDS011;56723;42.694;23.286;2023-03-14T02:11:26;23.93;;;13.47;;
69523;SDS011;56723;42.694;23.286;2023-03-14T02:14:06;20.03;;;13.17;;
69523;SDS011;56723;42.694;23.286;2023-03-14T02:17:03;23.57;;;14.67;;
69523;SDS011;56723;42.694;23.286;2023-03-14T02:22:35;25.27;;;13.53;;
69523;SDS011;56723;42.694;23.286;2023-03-14T02:27:58;26.77;;;14.83;;
69523;SDS011;56723;42.694;23.286;2023-03-14T02:30:28;23.37;;;13.90;;
69523;SDS011;56723;42.694;23.286;2023-03-14T02:33:03;22.17;;;13.63;;
69523;SDS011;56723;42.694;23.286;2023-03-14T02:38:30;31.13;;;15.03;;
69523;SDS011;56723;42.694;23.286;2023-03-14T02:41:04;26.97;;;14.93;;
69523;SDS011;56723;42.694;23.286;2023-03-14T02:43:36;20.77;;;13.17;;
69523;SDS011;56723;42.694;23.286;2023-03-14T02:46:08;23.37;;;13.83;;
69523;SDS011;56723;42.694;23.286;2023-03-14T02:48:39;23.60;;;14.10;;
69523;SDS011;56723;42.694;23.286;2023-03-14T02:51:10;22.10;;;12.27;;
69523;SDS011;56723;42.694;23.286;2023-03-14T02:53:38;27.97;;;15.03;;
69523;SDS011;56723;42.694;23.286;2023-03-14T02:56:10;25.30;;;14.53;;
69523;SDS011;56723;42.694;23.286;2023-03-14T02:58:37;24.87;;;14.30;;
69523;SDS011;56723;42.694;23.286;2023-03-14T03:01:31;24.70;;;14.83;;
69523;SDS011;56723;42.694;23.286;2023-03-14T03:04:00;25.98;;;15.02;;
69523;SDS011;56723;42.694;23.286;2023-03-14T03:06:27;24.80;;;15.10;;
69523;SDS011;56723;42.694;23.286;2023-03-14T03:08:54;21.10;;;14.43;;
69523;SDS011;56723;42.694;23.286;2023-03-14T03:11:21;24.53;;;15.27;;
69523;SDS011;56723;42.694;23.286;2023-03-14T03:13:48;26.83;;;14.13;;
69523;SDS011;56723;42.694;23.286;2023-03-14T03:16:15;22.27;;;13.87;;
69523;SDS011;56723;42.694;23.286;2023-03-14T03:18:42;27.80;;;16.43;;
69523;SDS011;56723;42.694;23.286;2023-03-14T03:21:09;24.40;;;13.13;;
69523;SDS011;56723;42.694;23.286;2023-03-14T03:23:36;28.50;;;16.63;;
69523;SDS011;56723;42.694;23.286;2023-03-14T03:26:04;24.63;;;13.70;;
69523;SDS011;56723;42.694;23.286;2023-03-14T04:22:10;26.23;;;15.60;;
69523;SDS011;56723;42.694;23.286;2023-03-14T04:24:45;31.67;;;19.23;;
69523;SDS011;56723;42.694;23.286;2023-03-14T04:27:12;27.00;;;18.20;;
69523;SDS011;56723;42.694;23.286;2023-03-14T04:29:43;32.77;;;17.53;;
69523;SDS011;56723;42.694;23.286;2023-03-14T04:32:14;30.20;;;16.70;;
69523;SDS011;56723;42.694;23.286;2023-03-14T04:34:41;26.37;;;16.67;;
69523;SDS011;56723;42.694;23.286;2023-03-14T04:37:08;27.43;;;16.33;;
69523;SDS011;56723;42.694;23.286;2023-03-14T04:39:39;25.07;;;16.40;;
69523;SDS011;56723;42.694;23.286;2023-03-14T05:29:22;40.60;;;32.80;;
69523;SDS011;56723;42.694;23.286;2023-03-14T05:31:58;48.13;;;32.33;;
69523;SDS011;56723;42.694;23.286;2023-03-14T05:34:57;39.28;;;26.30;;
69523;SDS011;56723;42.694;23.286;2023-03-14T05:38:00;31.27;;;20.27;;
69523;SDS011;56723;42.694;23.286;2023-03-14T05:40:46;34.73;;;21.10;;
69523;SDS011;56723;42.694;23.286;2023-03-14T05:43:32;27.83;;;19.57;;
69523;SDS011;56723;42.694;23.286;2023-03-14T05:46:17;25.00;;;18.10;;
69523;SDS011;56723;42.694;23.286;2023-03-14T05:48:53;34.13;;;20.00;;
69523;SDS011;56723;42.694;23.286;2023-03-14T05:51:31;36.10;;;20.73;;
69523;SDS011;56723;42.694;23.286;2023-03-14T05:54:12;37.57;;;18.20;;
69523;SDS011;56723;42.694;23.286;2023-03-14T05:56:46;33.20;;;16.70;;
69523;SDS011;56723;42.694;23.286;2023-03-14T05:59:24;31.93;;;18.13;;
69523;SDS011;56723;42.694;23.286;2023-03-14T06:02:06;22.73;;;13.53;;
69523;SDS011;56723;42.694;23.286;2023-03-14T06:04:44;23.47;;;13.90;;
69523;SDS011;56723;42.694;23.286;2023-03-14T06:31:10;17.60;;;11.93;;
69523;SDS011;56723;42.694;23.286;2023-03-14T06:33:47;23.63;;;13.77;;
69523;SDS011;56723;42.694;23.286;2023-03-14T06:36:14;23.53;;;11.47;;
69523;SDS011;56723;42.694;23.286;2023-03-14T06:38:44;19.90;;;11.17;;
69523;SDS011;56723;42.694;23.286;2023-03-14T06:41:12;18.50;;;11.47;;
69523;SDS011;56723;42.694;23.286;2023-03-14T06:43:41;16.90;;;11.60;;
69523;SDS011;56723;42.694;23.286;2023-03-14T06:46:09;18.13;;;10.97;;
69523;SDS011;56723;42.694;23.286;2023-03-14T06:48:38;21.13;;;12.65;;
69523;SDS011;56723;42.694;23.286;2023-03-14T06:51:06;18.50;;;12.00;;
69523;SDS011;56723;42.694;23.286;2023-03-14T06:53:33;19.90;;;12.27;;
69523;SDS011;56723;42.694;23.286;2023-03-14T06:56:01;24.27;;;13.17;;
69523;SDS011;56723;42.694;23.286;2023-03-14T06:58:31;19.58;;;11.68;;
69523;SDS011;56723;42.694;23.286;2023-03-14T07:00:59;23.90;;;13.37;;
69523;SDS011;56723;42.694;23.286;2023-03-14T07:03:32;25.47;;;14.30;;
69523;SDS011;56723;42.694;23.286;2023-03-14T07:05:59;25.67;;;13.57;;
69523;SDS011;56723;42.694;23.286;2023-03-14T07:08:26;25.33;;;12.80;;
69523;SDS011;56723;42.694;23.286;2023-03-14T07:10:55;24.77;;;14.57;;
69523;SDS011;56723;42.694;23.286;2023-03-14T07:13:23;23.53;;;13.03;;
69523;SDS011;56723;42.694;23.286;2023-03-14T07:15:59;32.90;;;16.93;;
69523;SDS011;56723;42.694;23.286;2023-03-14T07:18:26;24.17;;;15.57;;
69523;SDS011;56723;42.694;23.286;2023-03-14T07:20:54;24.80;;;14.37;;
69523;SDS011;56723;42.694;23.286;2023-03-14T07:49:29;24.67;;;13.80;;
69523;SDS011;56723;42.694;23.286;2023-03-14T07:51:56;27.40;;;13.97;;
69523;SDS011;56723;42.694;23.286;2023-03-14T07:54:24;22.43;;;14.87;;
69523;SDS011;56723;42.694;23.286;2023-03-14T07:56:51;27.27;;;17.00;;
69523;SDS011;56723;42.694;23.286;2023-03-14T07:59:18;27.63;;;17.43;;
69523;SDS011;56723;42.694;23.286;2023-03-14T08:01:45;21.87;;;14.47;;
69523;SDS011;56723;42.694;23.286;2023-03-14T08:04:12;25.17;;;15.90;;
69523;SDS011;56723;42.694;23.286;2023-03-14T08:06:39;21.23;;;14.67;;
69523;SDS011;56723;42.694;23.286;2023-03-14T08:09:06;23.07;;;13.90;;
69523;SDS011;56723;42.694;23.286;2023-03-14T08:11:33;21.57;;;14.73;;
69523;SDS011;56723;42.694;23.286;2023-03-14T08:14:01;26.50;;;13.93;;
69523;SDS011;56723;42.694;23.286;2023-03-14T08:16:29;22.85;;;13.82;;
69523;SDS011;56723;42.694;23.286;2023-03-14T08:18:56;24.97;;;13.63;;
69523;SDS011;56723;42.694;23.286;2023-03-14T08:21:23;22.10;;;14.17;;
69523;SDS011;56723;42.694;23.286;2023-03-14T08:23:49;20.60;;;14.43;;
69523;SDS011;56723;42.694;23.286;2023-03-14T08:26:16;25.07;;;14.83;;
69523;SDS011;56723;42.694;23.286;2023-03-14T08:28:43;26.10;;;13.87;;
69523;SDS011;56723;42.694;23.286;2023-03-14T08:31:10;20.90;;;14.23;;
69523;SDS011;56723;42.694;23.286;2023-03-14T08:33:37;21.73;;;14.40;;
69523;SDS011;56723;42.694;23.286;2023-03-14T08:36:04;24.13;;;13.37;;
69523;SDS011;56723;42.694;23.286;2023-03-14T08:38:31;22.33;;;13.73;;
69523;SDS011;56723;42.694;23.286;2023-03-14T08:44:00;23.93;;;11.57;;
69523;SDS011;56723;42.694;23.286;2023-03-14T08:46:28;18.33;;;11.57;;
69523;SDS011;56723;42.694;23.286;2023-03-14T08:48:54;17.93;;;11.37;;
69523;SDS011;56723;42.694;23.286;2023-03-14T08:51:21;16.00;;;10.10;;
69523;SDS011;56723;42.694;23.286;2023-03-14T08:53:48;16.10;;;9.40;;
69523;SDS011;56723;42.694;23.286;2023-03-14T08:56:15;13.53;;;9.67;;
69523;SDS011;56723;42.694;23.286;2023-03-14T08:58:42;16.13;;;9.17;;
69523;SDS011;56723;42.694;23.286;2023-03-14T09:01:09;12.27;;;8.47;;
69523;SDS011;56723;42.694;23.286;2023-03-14T09:03:37;11.23;;;8.20;;
69523;SDS011;56723;42.694;23.286;2023-03-14T09:06:05;13.07;;;8.63;;
69523;SDS011;56723;42.694;23.286;2023-03-14T09:08:36;13.90;;;8.10;;
69523;SDS011;56723;42.694;23.286;2023-03-14T09:11:08;9.77;;;6.55;;
69523;SDS011;56723;42.694;23.286;2023-03-14T09:13:35;13.50;;;7.00;;
69523;SDS011;56723;42.694;23.286;2023-03-14T09:16:03;12.80;;;7.00;;
69523;SDS011;56723;42.694;23.286;2023-03-14T09:18:30;12.43;;;6.90;;
69523;SDS011;56723;42.694;23.286;2023-03-14T09:20:57;8.90;;;5.87;;
69523;SDS011;56723;42.694;23.286;2023-03-14T09:23:24;9.20;;;5.95;;
69523;SDS011;56723;42.694;23.286;2023-03-14T09:25:54;9.95;;;6.18;;
69523;SDS011;56723;42.694;23.286;2023-03-14T09:28:22;9.60;;;6.45;;
69523;SDS011;56723;42.694;23.286;2023-03-14T09:30:49;9.05;;;5.80;;
69523;SDS011;56723;42.694;23.286;2023-03-14T09:33:16;10.63;;;6.97;;
69523;SDS011;56723;42.694;23.286;2023-03-14T09:35:43;11.48;;;6.25;;
69523;SDS011;56723;42.694;23.286;2023-03-14T09:38:10;13.25;;;7.05;;
69523;SDS011;56723;42.694;23.286;2023-03-14T09:40:37;7.10;;;5.97;;
69523;SDS011;56723;42.694;23.286;2023-03-14T09:43:05;12.38;;;7.07;;
69523;SDS011;56723;42.694;23.286;2023-03-14T09:45:36;7.32;;;5.20;;
69523;SDS011;56723;42.694;23.286;2023-03-14T09:48:14;9.75;;;5.97;;
69523;SDS011;56723;42.694;23.286;2023-03-14T09:50:54;8.90;;;5.45;;
69523;SDS011;56723;42.694;23.286;2023-03-14T09:53:24;8.60;;;5.97;;
69523;SDS011;56723;42.694;23.286;2023-03-14T09:56:02;9.57;;;5.80;;
69523;SDS011;56723;42.694;23.286;2023-03-14T09:58:30;7.93;;;4.47;;
69523;SDS011;56723;42.694;23.286;2023-03-14T10:00:57;12.40;;;5.57;;
69523;SDS011;56723;42.694;23.286;2023-03-14T10:03:33;9.82;;;5.47;;
69523;SDS011;56723;42.694;23.286;2023-03-14T10:06:01;7.68;;;5.35;;
69523;SDS011;56723;42.694;23.286;2023-03-14T10:08:38;8.35;;;5.50;;
69523;SDS011;56723;42.694;23.286;2023-03-14T10:11:06;9.00;;;5.38;;
69523;SDS011;56723;42.694;23.286;2023-03-14T10:13:33;7.13;;;4.95;;
69523;SDS011;56723;42.694;23.286;2023-03-14T10:16:02;8.43;;;4.72;;
69523;SDS011;56723;42.694;23.286;2023-03-14T10:18:32;9.70;;;4.90;;
69523;SDS011;56723;42.694;23.286;2023-03-14T10:21:21;8.02;;;4.07;;
69523;SDS011;56723;42.694;23.286;2023-03-14T10:23:54;7.43;;;3.28;;
69523;SDS011;56723;42.694;23.286;2023-03-14T10:26:24;10.60;;;4.18;;
69523;SDS011;56723;42.694;23.286;2023-03-14T10:29:01;7.65;;;3.97;;
69523;SDS011;56723;42.694;23.286;2023-03-14T10:31:50;6.72;;;3.42;;
69523;SDS011;56723;42.694;23.286;2023-03-14T10:34:25;3.05;;;2.17;;
69523;SDS011;56723;42.694;23.286;2023-03-14T10:36:58;4.90;;;3.15;;
69523;SDS011;56723;42.694;23.286;2023-03-14T10:42:15;6.53;;;3.45;;
69523;SDS011;56723;42.694;23.286;2023-03-14T10:44:43;8.68;;;4.03;;
69523;SDS011;56723;42.694;23.286;2023-03-14T10:47:17;6.78;;;4.20;;
69523;SDS011;56723;42.694;23.286;2023-03-14T10:49:46;9.20;;;4.20;;
69523;SDS011;56723;42.694;23.286;2023-03-14T10:52:15;8.90;;;4.78;;
69523;SDS011;56723;42.694;23.286;2023-03-14T10:54:46;8.10;;;4.30;;
69523;SDS011;56723;42.694;23.286;2023-03-14T10:57:14;8.70;;;5.22;;
69523;SDS011;56723;42.694;23.286;2023-03-14T10:59:42;8.75;;;4.82;;
69523;SDS011;56723;42.694;23.286;2023-03-14T11:02:15;8.80;;;5.07;;
69523;SDS011;56723;42.694;23.286;2023-03-14T11:08:04;7.97;;;5.93;;
69523;SDS011;56723;42.694;23.286;2023-03-14T11:10:36;11.23;;;5.30;;
69523;SDS011;56723;42.694;23.286;2023-03-14T11:16:13;10.98;;;4.63;;
69523;SDS011;56723;42.694;23.286;2023-03-14T11:21:48;8.20;;;4.15;;
69523;SDS011;56723;42.694;23.286;2023-03-14T11:30:19;8.20;;;3.26;;
69523;SDS011;56723;42.694;23.286;2023-03-14T11:35:42;4.55;;;2.40;;
69523;SDS011;56723;42.694;23.286;2023-03-14T11:41:25;4.03;;;2.22;;
69523;SDS011;56723;42.694;23.286;2023-03-14T11:43:57;6.35;;;2.58;;
69523;SDS011;56723;42.694;23.286;2023-03-14T11:46:34;5.32;;;2.92;;
69523;SDS011;56723;42.694;23.286;2023-03-14T11:49:27;3.50;;;2.47;;
69523;SDS011;56723;42.694;23.286;2023-03-14T11:52:36;3.38;;;1.70;;
69523;SDS011;56723;42.694;23.286;2023-03-14T11:55:17;3.80;;;1.92;;
69523;SDS011;56723;42.694;23.286;2023-03-14T11:57:49;5.10;;;2.13;;
69523;SDS011;56723;42.694;23.286;2023-03-14T12:00:20;5.72;;;2.38;;
69523;SDS011;56723;42.694;23.286;2023-03-14T12:02:56;3.88;;;2.20;;
69523;SDS011;56723;42.694;23.286;2023-03-14T12:10:41;2.50;;;1.88;;
69523;SDS011;56723;42.694;23.286;2023-03-14T12:13:13;2.95;;;2.08;;
69523;SDS011;56723;42.694;23.286;2023-03-14T12:15:58;3.47;;;1.77;;
69523;SDS011;56723;42.694;23.286;2023-03-14T12:18:27;3.88;;;1.75;;
69523;SDS011;56723;42.694;23.286;2023-03-14T12:23:49;5.80;;;1.80;;
69523;SDS011;56723;42.694;23.286;2023-03-14T12:26:22;2.80;;;1.50;;
69523;SDS011;56723;42.694;23.286;2023-03-14T12:36:48;3.80;;;1.67;;
69523;SDS011;56723;42.694;23.286;2023-03-14T12:44:48;2.30;;;1.40;;
69523;SDS011;56723;42.694;23.286;2023-03-14T12:49:49;2.70;;;1.40;;
69523;SDS011;56723;42.694;23.286;2023-03-14T12:52:20;3.00;;;1.10;;
69523;SDS011;56723;42.694;23.286;2023-03-14T12:57:25;3.15;;;1.50;;
69523;SDS011;56723;42.694;23.286;2023-03-14T12:59:59;2.35;;;1.15;;
69523;SDS011;56723;42.694;23.286;2023-03-14T13:02:41;1.70;;;0.73;;
69523;SDS011;56723;42.694;23.286;2023-03-14T13:05:11;2.38;;;0.85;;
69523;SDS011;56723;42.694;23.286;2023-03-14T13:10:27;2.42;;;0.70;;
69523;SDS011;56723;42.694;23.286;2023-03-14T13:13:11;1.98;;;0.82;;
69523;SDS011;56723;42.694;23.286;2023-03-14T13:15:42;2.58;;;0.77;;
69523;SDS011;56723;42.694;23.286;2023-03-14T13:18:15;4.50;;;1.38;;
69523;SDS011;56723;42.694;23.286;2023-03-14T13:21:00;2.35;;;0.75;;
69523;SDS011;56723;42.694;23.286;2023-03-14T13:23:33;3.97;;;0.80;;
69523;SDS011;56723;42.694;23.286;2023-03-14T13:26:01;3.25;;;1.23;;
69523;SDS011;56723;42.694;23.286;2023-03-14T13:28:29;2.28;;;0.93;;
69523;SDS011;56723;42.694;23.286;2023-03-14T13:31:00;2.75;;;0.85;;
69523;SDS011;56723;42.694;23.286;2023-03-14T13:33:32;1.67;;;0.60;;
69523;SDS011;56723;42.694;23.286;2023-03-14T13:36:02;2.50;;;0.70;;
69523;SDS011;56723;42.694;23.286;2023-03-14T13:38:31;2.63;;;0.70;;
69523;SDS011;56723;42.694;23.286;2023-03-14T13:40:59;2.40;;;0.70;;
69523;SDS011;56723;42.694;23.286;2023-03-14T13:43:31;1.23;;;0.40;;
69523;SDS011;56723;42.694;23.286;2023-03-14T13:46:04;4.85;;;0.75;;
69523;SDS011;56723;42.694;23.286;2023-03-14T13:48:34;1.55;;;1.08;;
69523;SDS011;56723;42.694;23.286;2023-03-14T13:51:11;2.20;;;0.40;;
69523;SDS011;56723;42.694;23.286;2023-03-14T13:56:14;2.38;;;0.80;;
69523;SDS011;56723;42.694;23.286;2023-03-14T13:58:42;3.85;;;0.60;;
69523;SDS011;56723;42.694;23.286;2023-03-14T14:01:29;1.98;;;0.70;;
69523;SDS011;56723;42.694;23.286;2023-03-14T14:04:06;4.32;;;0.68;;
69523;SDS011;56723;42.694;23.286;2023-03-14T14:06:36;2.90;;;0.73;;
69523;SDS011;56723;42.694;23.286;2023-03-14T14:09:12;2.53;;;0.68;;
69523;SDS011;56723;42.694;23.286;2023-03-14T14:14:34;1.90;;;0.80;;
69523;SDS011;56723;42.694;23.286;2023-03-14T14:17:21;3.22;;;0.80;;
69523;SDS011;56723;42.694;23.286;2023-03-14T14:20:14;3.40;;;0.50;;
69523;SDS011;56723;42.694;23.286;2023-03-14T14:22:43;2.38;;;0.40;;
69523;SDS011;56723;42.694;23.286;2023-03-14T14:25:14;1.52;;;0.40;;
69523;SDS011;56723;42.694;23.286;2023-03-14T14:27:43;1.33;;;0.43;;
69523;SDS011;56723;42.694;23.286;2023-03-14T14:32:44;1.75;;;0.60;;
69523;SDS011;56723;42.694;23.286;2023-03-14T14:35:22;2.28;;;0.52;;
69523;SDS011;56723;42.694;23.286;2023-03-14T14:38:00;1.60;;;0.50;;
69523;SDS011;56723;42.694;23.286;2023-03-14T14:40:28;1.55;;;0.65;;
69523;SDS011;56723;42.694;23.286;2023-03-14T14:45:30;1.35;;;0.63;;
69523;SDS011;56723;42.694;23.286;2023-03-14T14:53:19;14.48;;;6.15;;
69523;SDS011;56723;42.694;23.286;2023-03-14T14:55:50;5.15;;;1.42;;
69523;SDS011;56723;42.694;23.286;2023-03-14T15:01:31;1.45;;;0.40;;
69523;SDS011;56723;42.694;23.286;2023-03-14T15:03:50;4.82;;;0.60;;
69523;SDS011;56723;42.694;23.286;2023-03-14T15:06:19;1.75;;;0.88;;
69523;SDS011;56723;42.694;23.286;2023-03-14T15:08:47;3.35;;;0.80;;
69523;SDS011;56723;42.694;23.286;2023-03-14T15:11:16;2.50;;;1.00;;
69523;SDS011;56723;42.694;23.286;2023-03-14T15:13:44;3.30;;;0.50;;
69523;SDS011;56723;42.694;23.286;2023-03-14T15:16:12;3.13;;;0.50;;
69523;SDS011;56723;42.694;23.286;2023-03-14T15:18:40;1.67;;;0.80;;
69523;SDS011;56723;42.694;23.286;2023-03-14T15:21:09;4.38;;;2.60;;
69523;SDS011;56723;42.694;23.286;2023-03-14T15:23:37;9.57;;;6.35;;
69523;SDS011;56723;42.694;23.286;2023-03-14T15:26:13;38.47;;;22.42;;
69523;SDS011;56723;42.694;23.286;2023-03-14T15:28:43;30.10;;;18.67;;
69523;SDS011;56723;42.694;23.286;2023-03-14T15:31:12;18.10;;;10.32;;
69523;SDS011;56723;42.694;23.286;2023-03-14T15:33:41;8.98;;;5.47;;
69523;SDS011;56723;42.694;23.286;2023-03-14T15:36:32;16.60;;;8.65;;
69523;SDS011;56723;42.694;23.286;2023-03-14T15:38:59;28.60;;;17.80;;
69523;SDS011;56723;42.694;23.286;2023-03-14T15:41:26;7.88;;;3.38;;
69523;SDS011;56723;42.694;23.286;2023-03-14T15:43:54;5.25;;;1.83;;
69523;SDS011;56723;42.694;23.286;2023-03-14T15:46:22;5.22;;;2.30;;
69523;SDS011;56723;42.694;23.286;2023-03-14T15:48:50;7.00;;;4.32;;
69523;SDS011;56723;42.694;23.286;2023-03-14T15:51:18;4.10;;;2.80;;
69523;SDS011;56723;42.694;23.286;2023-03-14T15:53:45;2.83;;;1.20;;
69523;SDS011;56723;42.694;23.286;2023-03-14T15:56:13;4.80;;;1.45;;
69523;SDS011;56723;42.694;23.286;2023-03-14T15:58:43;3.60;;;0.80;;
69523;SDS011;56723;42.694;23.286;2023-03-14T16:01:13;2.67;;;1.10;;
69523;SDS011;56723;42.694;23.286;2023-03-14T16:03:43;7.82;;;1.23;;
69523;SDS011;56723;42.694;23.286;2023-03-14T16:06:12;2.85;;;1.00;;
69523;SDS011;56723;42.694;23.286;2023-03-14T16:08:40;4.10;;;0.53;;
69523;SDS011;56723;42.694;23.286;2023-03-14T16:11:08;3.70;;;0.85;;
69523;SDS011;56723;42.694;23.286;2023-03-14T16:16:05;2.70;;;0.90;;
69523;SDS011;56723;42.694;23.286;2023-03-14T16:18:34;1.90;;;1.08;;
69523;SDS011;56723;42.694;23.286;2023-03-14T16:21:04;5.93;;;1.10;;
69523;SDS011;56723;42.694;23.286;2023-03-14T16:23:33;6.05;;;3.22;;
69523;SDS011;56723;42.694;23.286;2023-03-14T16:26:05;8.55;;;3.25;;
69523;SDS011;56723;42.694;23.286;2023-03-14T16:28:33;6.88;;;3.28;;
69523;SDS011;56723;42.694;23.286;2023-03-14T16:31:04;5.78;;;2.25;;
69523;SDS011;56723;42.694;23.286;2023-03-14T16:33:33;6.68;;;2.45;;
69523;SDS011;56723;42.694;23.286;2023-03-14T16:36:01;4.97;;;2.33;;
69523;SDS011;56723;42.694;23.286;2023-03-14T16:38:37;4.30;;;2.10;;
69523;SDS011;56723;42.694;23.286;2023-03-14T16:41:13;6.07;;;2.50;;
69523;SDS011;56723;42.694;23.286;2023-03-14T16:43:43;3.15;;;1.38;;
69523;SDS011;56723;42.694;23.286;2023-03-14T16:46:13;3.17;;;1.98;;
69523;SDS011;56723;42.694;23.286;2023-03-14T16:48:45;3.90;;;2.05;;
69523;SDS011;56723;42.694;23.286;2023-03-14T16:51:12;4.78;;;1.98;;
69523;SDS011;56723;42.694;23.286;2023-03-14T16:53:39;4.35;;;2.40;;
69523;SDS011;56723;42.694;23.286;2023-03-14T16:56:06;6.38;;;2.53;;
69523;SDS011;56723;42.694;23.286;2023-03-14T16:58:34;6.28;;;3.03;;
69523;SDS011;56723;42.694;23.286;2023-03-14T17:01:08;4.18;;;2.47;;
69523;SDS011;56723;42.694;23.286;2023-03-14T17:06:04;4.90;;;2.88;;
69523;SDS011;56723;42.694;23.286;2023-03-14T17:08:32;7.55;;;3.05;;
69523;SDS011;56723;42.694;23.286;2023-03-14T17:10:59;7.25;;;3.22;;
69523;SDS011;56723;42.694;23.286;2023-03-14T17:13:26;7.85;;;3.53;;
69523;SDS011;56723;42.694;23.286;2023-03-14T17:15:54;8.98;;;3.92;;
69523;SDS011;56723;42.694;23.286;2023-03-14T17:18:23;7.78;;;3.47;;
69523;SDS011;56723;42.694;23.286;2023-03-14T17:20:51;6.30;;;3.90;;
69523;SDS011;56723;42.694;23.286;2023-03-14T17:23:20;6.55;;;3.63;;
69523;SDS011;56723;42.694;23.286;2023-03-14T17:25:48;8.70;;;3.67;;
69523;SDS011;56723;42.694;23.286;2023-03-14T17:28:16;5.63;;;3.67;;
69523;SDS011;56723;42.694;23.286;2023-03-14T17:30:44;6.22;;;3.60;;
69523;SDS011;56723;42.694;23.286;2023-03-14T17:33:11;8.68;;;3.55;;
69523;SDS011;56723;42.694;23.286;2023-03-14T17:35:38;9.23;;;4.57;;
69523;SDS011;56723;42.694;23.286;2023-03-14T17:38:06;9.33;;;5.10;;
69523;SDS011;56723;42.694;23.286;2023-03-14T17:40:32;9.13;;;5.57;;
69523;SDS011;56723;42.694;23.286;2023-03-14T17:42:59;9.97;;;5.43;;
69523;SDS011;56723;42.694;23.286;2023-03-14T17:45:29;9.90;;;6.50;;
69523;SDS011;56723;42.694;23.286;2023-03-14T17:47:56;9.57;;;5.47;;
69523;SDS011;56723;42.694;23.286;2023-03-14T17:50:23;8.87;;;4.97;;
69523;SDS011;56723;42.694;23.286;2023-03-14T17:52:50;7.07;;;4.83;;
69523;SDS011;56723;42.694;23.286;2023-03-14T17:55:17;9.00;;;5.17;;
69523;SDS011;56723;42.694;23.286;2023-03-14T17:57:44;16.17;;;4.90;;
69523;SDS011;56723;42.694;23.286;2023-03-14T18:00:11;9.10;;;5.47;;
69523;SDS011;56723;42.694;23.286;2023-03-14T18:02:39;12.47;;;5.80;;
69523;SDS011;56723;42.694;23.286;2023-03-14T18:05:07;11.53;;;5.40;;
69523;SDS011;56723;42.694;23.286;2023-03-14T18:07:34;8.00;;;5.07;;
69523;SDS011;56723;42.694;23.286;2023-03-14T18:10:03;13.30;;;6.20;;
69523;SDS011;56723;42.694;23.286;2023-03-14T18:12:31;16.25;;;5.70;;
69523;SDS011;56723;42.694;23.286;2023-03-14T18:14:58;10.47;;;5.73;;
69523;SDS011;56723;42.694;23.286;2023-03-14T18:17:25;8.30;;;4.77;;
69523;SDS011;56723;42.694;23.286;2023-03-14T18:19:55;10.23;;;4.93;;
69523;SDS011;56723;42.694;23.286;2023-03-14T18:22:23;9.13;;;5.33;;
69523;SDS011;56723;42.694;23.286;2023-03-14T18:24:50;9.63;;;5.13;;
69523;SDS011;56723;42.694;23.286;2023-03-14T18:27:17;13.67;;;6.30;;
69523;SDS011;56723;42.694;23.286;2023-03-14T18:29:44;9.03;;;4.60;;
69523;SDS011;56723;42.694;23.286;2023-03-14T18:32:11;8.57;;;4.50;;
69523;SDS011;56723;42.694;23.286;2023-03-14T18:34:38;6.77;;;3.77;;
69523;SDS011;56723;42.694;23.286;2023-03-14T18:37:05;8.43;;;4.33;;
69523;SDS011;56723;42.694;23.286;2023-03-14T18:39:32;7.87;;;4.37;;
69523;SDS011;56723;42.694;23.286;2023-03-14T18:42:00;9.73;;;3.90;;
69523;SDS011;56723;42.694;23.286;2023-03-14T18:44:26;8.67;;;4.60;;
69523;SDS011;56723;42.694;23.286;2023-03-14T18:46:55;9.27;;;4.10;;
69523;SDS011;56723;42.694;23.286;2023-03-14T18:49:22;9.53;;;5.07;;